sensor_id;sensor_type;location;lat;lon;timestamp;P1;durP1;ratioP1;P2;durP2;ratioP2
8993;SDS011;4532;50.886;4.700;2023-01-10T00:02:00;9.70;;;2.47;;
8993;SDS011;4532;50.886;4.700;2023-01-10T00:04:28;6.20;;;2.37;;
8993;SDS011;4532;50.886;4.700;2023-01-10T00:06:56;13.97;;;2.40;;
8993;SDS011;4532;50.886;4.700;2023-01-10T00:09:26;8.90;;;2.83;;
8993;SDS011;4532;50.886;4.700;2023-01-10T00:11:53;10.47;;;2.67;;
8993;SDS011;4532;50.886;4.700;2023-01-10T00:14:39;11.00;;;2.97;;
8993;SDS011;4532;50.886;4.700;2023-01-10T00:17:06;8.27;;;2.80;;
8993;SDS011;4532;50.886;4.700;2023-01-10T00:19:40;13.13;;;2.73;;
8993;SDS011;4532;50.886;4.700;2023-01-10T00:22:12;7.97;;;2.47;;
8993;SDS011;4532;50.886;4.700;2023-01-10T00:24:48;11.17;;;3.20;;
8993;SDS011;4532;50.886;4.700;2023-01-10T00:27:15;9.30;;;2.93;;
8993;SDS011;4532;50.886;4.700;2023-01-10T00:29:48;10.80;;;2.73;;
8993;SDS011;4532;50.886;4.700;2023-01-10T00:32:21;13.53;;;3.53;;
8993;SDS011;4532;50.886;4.700;2023-01-10T00:34:51;8.70;;;2.87;;
8993;SDS011;4532;50.886;4.700;2023-01-10T00:37:18;9.20;;;3.20;;
8993;SDS011;4532;50.886;4.700;2023-01-10T00:39:45;14.10;;;3.20;;
8993;SDS011;4532;50.886;4.700;2023-01-10T00:42:12;11.87;;;2.60;;
8993;SDS011;4532;50.886;4.700;2023-01-10T00:44:58;7.50;;;3.03;;
8993;SDS011;4532;50.886;4.700;2023-01-10T00:47:25;11.97;;;3.40;;
8993;SDS011;4532;50.886;4.700;2023-01-10T00:49:55;8.17;;;2.80;;
8993;SDS011;4532;50.886;4.700;2023-01-10T00:52:24;9.77;;;2.70;;
8993;SDS011;4532;50.886;4.700;2023-01-10T00:54:52;10.90;;;3.17;;
8993;SDS011;4532;50.886;4.700;2023-01-10T00:57:19;9.77;;;2.87;;
8993;SDS011;4532;50.886;4.700;2023-01-10T00:59:46;9.13;;;2.70;;
8993;SDS011;4532;50.886;4.700;2023-01-10T01:02:13;10.07;;;2.63;;
8993;SDS011;4532;50.886;4.700;2023-01-10T01:04:40;9.80;;;2.67;;
8993;SDS011;4532;50.886;4.700;2023-01-10T01:07:10;11.07;;;2.87;;
8993;SDS011;4532;50.886;4.700;2023-01-10T01:09:37;12.40;;;3.10;;
8993;SDS011;4532;50.886;4.700;2023-01-10T01:12:24;10.10;;;2.93;;
8993;SDS011;4532;50.886;4.700;2023-01-10T01:14:52;7.63;;;2.47;;
8993;SDS011;4532;50.886;4.700;2023-01-10T01:17:21;8.13;;;2.37;;
8993;SDS011;4532;50.886;4.700;2023-01-10T01:19:50;10.93;;;2.93;;
8993;SDS011;4532;50.886;4.700;2023-01-10T01:22:18;11.77;;;3.20;;
8993;SDS011;4532;50.886;4.700;2023-01-10T01:24:50;11.00;;;3.10;;
8993;SDS011;4532;50.886;4.700;2023-01-10T01:27:20;7.60;;;3.00;;
8993;SDS011;4532;50.886;4.700;2023-01-10T01:29:49;16.37;;;3.60;;
8993;SDS011;4532;50.886;4.700;2023-01-10T01:32:17;10.07;;;2.60;;
8993;SDS011;4532;50.886;4.700;2023-01-10T01:34:47;19.13;;;3.30;;
8993;SDS011;4532;50.886;4.700;2023-01-10T01:37:19;9.90;;;2.90;;
8993;SDS011;4532;50.886;4.700;2023-01-10T01:39:46;12.93;;;3.07;;
8993;SDS011;4532;50.886;4.700;2023-01-10T01:42:32;11.40;;;2.87;;
8993;SDS011;4532;50.886;4.700;2023-01-10T01:47:36;11.50;;;2.83;;
8993;SDS011;4532;50.886;4.700;2023-01-10T01:53:12;13.67;;;2.83;;
8993;SDS011;4532;50.886;4.700;2023-01-10T01:55:46;15.03;;;2.93;;
8993;SDS011;4532;50.886;4.700;2023-01-10T01:58:16;12.00;;;2.40;;
8993;SDS011;4532;50.886;4.700;2023-01-10T02:00:50;14.40;;;3.03;;
8993;SDS011;4532;50.886;4.700;2023-01-10T02:03:22;12.73;;;3.53;;
8993;SDS011;4532;50.886;4.700;2023-01-10T02:05:53;12.13;;;2.73;;
8993;SDS011;4532;50.886;4.700;2023-01-10T02:08:21;15.03;;;2.90;;
8993;SDS011;4532;50.886;4.700;2023-01-10T02:10:53;13.03;;;3.27;;
8993;SDS011;4532;50.886;4.700;2023-01-10T02:13:39;9.90;;;2.77;;
8993;SDS011;4532;50.886;4.700;2023-01-10T02:16:10;13.10;;;3.10;;
8993;SDS011;4532;50.886;4.700;2023-01-10T02:18:37;14.27;;;3.13;;
8993;SDS011;4532;50.886;4.700;2023-01-10T02:23:59;12.53;;;3.03;;
8993;SDS011;4532;50.886;4.700;2023-01-10T02:27:06;11.63;;;3.00;;
8993;SDS011;4532;50.886;4.700;2023-01-10T02:29:54;14.33;;;3.30;;
8993;SDS011;4532;50.886;4.700;2023-01-10T02:32:49;10.30;;;2.63;;
8993;SDS011;4532;50.886;4.700;2023-01-10T02:35:36;11.30;;;2.63;;
8993;SDS011;4532;50.886;4.700;2023-01-10T02:38:24;13.47;;;3.17;;
8993;SDS011;4532;50.886;4.700;2023-01-10T02:41:21;18.43;;;3.10;;
8993;SDS011;4532;50.886;4.700;2023-01-10T02:46:44;15.83;;;3.27;;
8993;SDS011;4532;50.886;4.700;2023-01-10T02:49:19;11.17;;;2.77;;
8993;SDS011;4532;50.886;4.700;2023-01-10T02:51:46;12.60;;;3.10;;
8993;SDS011;4532;50.886;4.700;2023-01-10T02:54:24;11.17;;;2.87;;
8993;SDS011;4532;50.886;4.700;2023-01-10T03:00:02;17.80;;;3.33;;
8993;SDS011;4532;50.886;4.700;2023-01-10T03:13:20;13.83;;;2.97;;
8993;SDS011;4532;50.886;4.700;2023-01-10T03:16:02;14.67;;;3.27;;
8993;SDS011;4532;50.886;4.700;2023-01-10T03:18:35;15.50;;;3.00;;
8993;SDS011;4532;50.886;4.700;2023-01-10T03:21:10;12.57;;;3.50;;
8993;SDS011;4532;50.886;4.700;2023-01-10T03:23:44;12.23;;;3.37;;
8993;SDS011;4532;50.886;4.700;2023-01-10T03:26:18;16.00;;;2.83;;
8993;SDS011;4532;50.886;4.700;2023-01-10T03:28:56;12.27;;;2.33;;
8993;SDS011;4532;50.886;4.700;2023-01-10T03:31:35;14.30;;;3.10;;
8993;SDS011;4532;50.886;4.700;2023-01-10T03:34:15;10.90;;;2.40;;
8993;SDS011;4532;50.886;4.700;2023-01-10T03:36:58;17.30;;;3.87;;
8993;SDS011;4532;50.886;4.700;2023-01-10T03:42:11;10.83;;;3.10;;
8993;SDS011;4532;50.886;4.700;2023-01-10T03:45:05;12.97;;;3.30;;
8993;SDS011;4532;50.886;4.700;2023-01-10T03:47:42;19.30;;;3.97;;
8993;SDS011;4532;50.886;4.700;2023-01-10T03:50:16;12.47;;;3.17;;
8993;SDS011;4532;50.886;4.700;2023-01-10T03:52:46;18.53;;;3.10;;
8993;SDS011;4532;50.886;4.700;2023-01-10T03:55:17;15.07;;;3.10;;
8993;SDS011;4532;50.886;4.700;2023-01-10T03:57:47;11.73;;;2.80;;
8993;SDS011;4532;50.886;4.700;2023-01-10T04:00:19;19.73;;;3.60;;
8993;SDS011;4532;50.886;4.700;2023-01-10T04:02:46;16.10;;;3.40;;
8993;SDS011;4532;50.886;4.700;2023-01-10T04:05:13;11.83;;;3.57;;
8993;SDS011;4532;50.886;4.700;2023-01-10T04:07:41;18.27;;;3.60;;
8993;SDS011;4532;50.886;4.700;2023-01-10T04:10:10;9.77;;;2.97;;
8993;SDS011;4532;50.886;4.700;2023-01-10T04:12:38;15.73;;;3.17;;
8993;SDS011;4532;50.886;4.700;2023-01-10T04:15:05;16.10;;;3.40;;
8993;SDS011;4532;50.886;4.700;2023-01-10T04:17:34;16.87;;;2.97;;
8993;SDS011;4532;50.886;4.700;2023-01-10T04:20:04;15.93;;;3.40;;
8993;SDS011;4532;50.886;4.700;2023-01-10T04:22:31;12.17;;;2.60;;
8993;SDS011;4532;50.886;4.700;2023-01-10T04:25:01;17.63;;;3.67;;
8993;SDS011;4532;50.886;4.700;2023-01-10T04:27:28;14.43;;;3.17;;
8993;SDS011;4532;50.886;4.700;2023-01-10T04:29:55;13.93;;;3.40;;
8993;SDS011;4532;50.886;4.700;2023-01-10T04:32:22;11.30;;;3.03;;
8993;SDS011;4532;50.886;4.700;2023-01-10T04:34:54;15.00;;;3.10;;
8993;SDS011;4532;50.886;4.700;2023-01-10T04:37:23;11.57;;;3.87;;
8993;SDS011;4532;50.886;4.700;2023-01-10T04:39:50;19.23;;;3.40;;
8993;SDS011;4532;50.886;4.700;2023-01-10T04:42:17;18.70;;;3.40;;
8993;SDS011;4532;50.886;4.700;2023-01-10T04:44:51;13.03;;;3.43;;
8993;SDS011;4532;50.886;4.700;2023-01-10T04:47:19;14.17;;;3.23;;
8993;SDS011;4532;50.886;4.700;2023-01-10T04:49:46;20.20;;;4.13;;
8993;SDS011;4532;50.886;4.700;2023-01-10T04:52:15;13.90;;;2.80;;
8993;SDS011;4532;50.886;4.700;2023-01-10T04:54:45;13.63;;;3.70;;
8993;SDS011;4532;50.886;4.700;2023-01-10T04:57:14;16.43;;;3.07;;
8993;SDS011;4532;50.886;4.700;2023-01-10T04:59:43;17.80;;;3.30;;
8993;SDS011;4532;50.886;4.700;2023-01-10T05:02:13;17.40;;;3.03;;
8993;SDS011;4532;50.886;4.700;2023-01-10T05:04:44;15.13;;;2.97;;
8993;SDS011;4532;50.886;4.700;2023-01-10T05:07:11;13.63;;;3.20;;
8993;SDS011;4532;50.886;4.700;2023-01-10T05:09:38;12.27;;;3.20;;
8993;SDS011;4532;50.886;4.700;2023-01-10T05:12:06;14.03;;;3.17;;
8993;SDS011;4532;50.886;4.700;2023-01-10T05:14:35;14.13;;;3.20;;
8993;SDS011;4532;50.886;4.700;2023-01-10T05:17:06;15.37;;;3.23;;
8993;SDS011;4532;50.886;4.700;2023-01-10T05:19:35;15.47;;;3.60;;
8993;SDS011;4532;50.886;4.700;2023-01-10T05:22:02;14.13;;;2.73;;
8993;SDS011;4532;50.886;4.700;2023-01-10T05:24:29;18.37;;;2.93;;
8993;SDS011;4532;50.886;4.700;2023-01-10T05:26:59;14.57;;;3.13;;
8993;SDS011;4532;50.886;4.700;2023-01-10T05:29:28;20.80;;;3.50;;
8993;SDS011;4532;50.886;4.700;2023-01-10T05:31:56;12.23;;;2.80;;
8993;SDS011;4532;50.886;4.700;2023-01-10T05:34:25;15.13;;;3.03;;
8993;SDS011;4532;50.886;4.700;2023-01-10T05:36:53;16.93;;;3.40;;
8993;SDS011;4532;50.886;4.700;2023-01-10T05:39:20;14.70;;;3.10;;
8993;SDS011;4532;50.886;4.700;2023-01-10T05:41:47;19.07;;;3.77;;
8993;SDS011;4532;50.886;4.700;2023-01-10T05:44:16;20.53;;;3.80;;
8993;SDS011;4532;50.886;4.700;2023-01-10T05:46:44;17.27;;;3.33;;
8993;SDS011;4532;50.886;4.700;2023-01-10T05:49:13;17.50;;;3.00;;
8993;SDS011;4532;50.886;4.700;2023-01-10T05:51:40;11.23;;;2.60;;
8993;SDS011;4532;50.886;4.700;2023-01-10T05:54:08;13.53;;;3.03;;
8993;SDS011;4532;50.886;4.700;2023-01-10T05:56:37;18.47;;;2.97;;
8993;SDS011;4532;50.886;4.700;2023-01-10T05:59:04;22.00;;;4.00;;
8993;SDS011;4532;50.886;4.700;2023-01-10T06:01:49;17.37;;;3.27;;
8993;SDS011;4532;50.886;4.700;2023-01-10T06:04:16;13.80;;;2.83;;
8993;SDS011;4532;50.886;4.700;2023-01-10T06:06:45;15.07;;;3.20;;
8993;SDS011;4532;50.886;4.700;2023-01-10T06:09:15;13.43;;;2.90;;
8993;SDS011;4532;50.886;4.700;2023-01-10T06:11:46;14.07;;;3.37;;
8993;SDS011;4532;50.886;4.700;2023-01-10T06:14:16;14.43;;;2.83;;
8993;SDS011;4532;50.886;4.700;2023-01-10T06:16:45;20.40;;;3.70;;
8993;SDS011;4532;50.886;4.700;2023-01-10T06:19:13;20.17;;;3.90;;
8993;SDS011;4532;50.886;4.700;2023-01-10T06:21:40;14.93;;;3.27;;
8993;SDS011;4532;50.886;4.700;2023-01-10T06:24:12;14.87;;;2.90;;
8993;SDS011;4532;50.886;4.700;2023-01-10T06:26:41;18.20;;;3.27;;
8993;SDS011;4532;50.886;4.700;2023-01-10T06:29:10;11.87;;;3.27;;
8993;SDS011;4532;50.886;4.700;2023-01-10T06:31:38;14.90;;;3.47;;
8993;SDS011;4532;50.886;4.700;2023-01-10T06:34:07;13.40;;;2.70;;
8993;SDS011;4532;50.886;4.700;2023-01-10T06:36:34;13.87;;;3.30;;
8993;SDS011;4532;50.886;4.700;2023-01-10T06:39:03;14.13;;;2.60;;
8993;SDS011;4532;50.886;4.700;2023-01-10T06:41:31;19.47;;;3.13;;
8993;SDS011;4532;50.886;4.700;2023-01-10T06:44:00;14.47;;;3.10;;
8993;SDS011;4532;50.886;4.700;2023-01-10T06:46:28;12.53;;;3.07;;
8993;SDS011;4532;50.886;4.700;2023-01-10T06:49:00;19.13;;;3.83;;
8993;SDS011;4532;50.886;4.700;2023-01-10T06:51:29;18.00;;;3.10;;
8993;SDS011;4532;50.886;4.700;2023-01-10T06:54:01;12.63;;;3.00;;
8993;SDS011;4532;50.886;4.700;2023-01-10T06:56:29;16.53;;;3.40;;
8993;SDS011;4532;50.886;4.700;2023-01-10T06:58:56;15.87;;;3.13;;
8993;SDS011;4532;50.886;4.700;2023-01-10T07:01:26;10.90;;;2.83;;
8993;SDS011;4532;50.886;4.700;2023-01-10T07:03:53;10.03;;;3.10;;
8993;SDS011;4532;50.886;4.700;2023-01-10T07:06:21;17.93;;;3.30;;
8993;SDS011;4532;50.886;4.700;2023-01-10T07:08:50;18.37;;;3.47;;
8993;SDS011;4532;50.886;4.700;2023-01-10T07:11:20;14.20;;;3.20;;
8993;SDS011;4532;50.886;4.700;2023-01-10T07:13:47;11.97;;;3.00;;
8993;SDS011;4532;50.886;4.700;2023-01-10T07:16:14;13.20;;;2.90;;
8993;SDS011;4532;50.886;4.700;2023-01-10T07:18:42;19.93;;;3.20;;
8993;SDS011;4532;50.886;4.700;2023-01-10T07:21:10;12.10;;;3.23;;
8993;SDS011;4532;50.886;4.700;2023-01-10T07:23:38;17.77;;;4.17;;
8993;SDS011;4532;50.886;4.700;2023-01-10T07:26:07;14.83;;;3.30;;
8993;SDS011;4532;50.886;4.700;2023-01-10T07:28:40;19.20;;;3.40;;
8993;SDS011;4532;50.886;4.700;2023-01-10T07:31:09;13.17;;;3.53;;
8993;SDS011;4532;50.886;4.700;2023-01-10T07:33:39;18.97;;;3.50;;
8993;SDS011;4532;50.886;4.700;2023-01-10T07:36:06;19.33;;;3.33;;
8993;SDS011;4532;50.886;4.700;2023-01-10T07:38:33;15.37;;;3.37;;
8993;SDS011;4532;50.886;4.700;2023-01-10T07:41:01;20.27;;;3.70;;
8993;SDS011;4532;50.886;4.700;2023-01-10T07:43:31;16.70;;;3.67;;
8993;SDS011;4532;50.886;4.700;2023-01-10T07:45:59;18.27;;;3.37;;
8993;SDS011;4532;50.886;4.700;2023-01-10T07:48:28;17.07;;;3.53;;
8993;SDS011;4532;50.886;4.700;2023-01-10T07:50:56;14.13;;;2.93;;
8993;SDS011;4532;50.886;4.700;2023-01-10T07:53:27;23.70;;;3.67;;
8993;SDS011;4532;50.886;4.700;2023-01-10T07:55:59;20.73;;;4.30;;
8993;SDS011;4532;50.886;4.700;2023-01-10T07:58:29;14.50;;;3.03;;
8993;SDS011;4532;50.886;4.700;2023-01-10T08:00:59;18.53;;;3.87;;
8993;SDS011;4532;50.886;4.700;2023-01-10T08:03:28;11.77;;;3.07;;
8993;SDS011;4532;50.886;4.700;2023-01-10T08:05:56;16.20;;;3.60;;
8993;SDS011;4532;50.886;4.700;2023-01-10T08:08:35;14.97;;;3.30;;
8993;SDS011;4532;50.886;4.700;2023-01-10T08:11:03;20.73;;;3.63;;
8993;SDS011;4532;50.886;4.700;2023-01-10T08:13:31;13.13;;;3.47;;
8993;SDS011;4532;50.886;4.700;2023-01-10T08:15:58;17.33;;;3.60;;
8993;SDS011;4532;50.886;4.700;2023-01-10T08:18:29;19.50;;;3.27;;
8993;SDS011;4532;50.886;4.700;2023-01-10T08:20:56;10.93;;;3.03;;
8993;SDS011;4532;50.886;4.700;2023-01-10T08:23:29;13.93;;;3.43;;
8993;SDS011;4532;50.886;4.700;2023-01-10T08:25:57;15.00;;;3.40;;
8993;SDS011;4532;50.886;4.700;2023-01-10T08:28:27;15.97;;;3.47;;
8993;SDS011;4532;50.886;4.700;2023-01-10T08:30:57;19.43;;;3.83;;
8993;SDS011;4532;50.886;4.700;2023-01-10T08:33:25;15.50;;;4.20;;
8993;SDS011;4532;50.886;4.700;2023-01-10T08:35:53;39.07;;;7.47;;
8993;SDS011;4532;50.886;4.700;2023-01-10T08:38:20;37.40;;;6.47;;
8993;SDS011;4532;50.886;4.700;2023-01-10T08:40:47;31.37;;;6.63;;
8993;SDS011;4532;50.886;4.700;2023-01-10T08:43:17;35.60;;;6.03;;
8993;SDS011;4532;50.886;4.700;2023-01-10T08:45:44;32.80;;;6.03;;
8993;SDS011;4532;50.886;4.700;2023-01-10T08:48:16;30.53;;;5.33;;
8993;SDS011;4532;50.886;4.700;2023-01-10T08:50:45;27.03;;;6.00;;
8993;SDS011;4532;50.886;4.700;2023-01-10T08:53:12;22.27;;;4.10;;
8993;SDS011;4532;50.886;4.700;2023-01-10T08:55:40;13.10;;;3.80;;
8993;SDS011;4532;50.886;4.700;2023-01-10T08:58:09;12.40;;;3.20;;
8993;SDS011;4532;50.886;4.700;2023-01-10T09:00:39;15.00;;;3.97;;
8993;SDS011;4532;50.886;4.700;2023-01-10T09:03:10;15.87;;;3.70;;
8993;SDS011;4532;50.886;4.700;2023-01-10T09:05:37;13.63;;;3.57;;
8993;SDS011;4532;50.886;4.700;2023-01-10T09:08:06;16.90;;;3.80;;
8993;SDS011;4532;50.886;4.700;2023-01-10T09:10:35;16.33;;;3.63;;
8993;SDS011;4532;50.886;4.700;2023-01-10T09:13:02;19.10;;;3.97;;
8993;SDS011;4532;50.886;4.700;2023-01-10T09:15:32;15.37;;;4.03;;
8993;SDS011;4532;50.886;4.700;2023-01-10T09:18:02;17.80;;;3.40;;
8993;SDS011;4532;50.886;4.700;2023-01-10T09:20:32;15.53;;;3.40;;
8993;SDS011;4532;50.886;4.700;2023-01-10T09:23:08;10.17;;;2.90;;
8993;SDS011;4532;50.886;4.700;2023-01-10T09:25:43;14.50;;;3.73;;
8993;SDS011;4532;50.886;4.700;2023-01-10T09:28:14;13.90;;;3.47;;
8993;SDS011;4532;50.886;4.700;2023-01-10T09:30:42;15.07;;;3.63;;
8993;SDS011;4532;50.886;4.700;2023-01-10T09:33:10;11.07;;;3.37;;
8993;SDS011;4532;50.886;4.700;2023-01-10T09:35:38;15.73;;;3.70;;
8993;SDS011;4532;50.886;4.700;2023-01-10T09:38:08;12.77;;;3.23;;
8993;SDS011;4532;50.886;4.700;2023-01-10T09:43:09;17.30;;;3.67;;
8993;SDS011;4532;50.886;4.700;2023-01-10T09:46:05;12.40;;;3.30;;
8993;SDS011;4532;50.886;4.700;2023-01-10T09:51:36;17.53;;;4.47;;
8993;SDS011;4532;50.886;4.700;2023-01-10T09:54:14;21.57;;;4.63;;
8993;SDS011;4532;50.886;4.700;2023-01-10T09:56:50;20.00;;;4.63;;
8993;SDS011;4532;50.886;4.700;2023-01-10T09:59:20;20.93;;;4.33;;
8993;SDS011;4532;50.886;4.700;2023-01-10T10:02:03;22.33;;;3.90;;
8993;SDS011;4532;50.886;4.700;2023-01-10T10:04:42;18.73;;;4.80;;
8993;SDS011;4532;50.886;4.700;2023-01-10T10:07:35;21.73;;;4.17;;
8993;SDS011;4532;50.886;4.700;2023-01-10T10:10:06;27.47;;;5.60;;
8993;SDS011;4532;50.886;4.700;2023-01-10T10:12:59;21.60;;;4.50;;
8993;SDS011;4532;50.886;4.700;2023-01-10T10:15:52;28.50;;;4.70;;
8993;SDS011;4532;50.886;4.700;2023-01-10T10:36:17;18.87;;;4.07;;
8993;SDS011;4532;50.886;4.700;2023-01-10T10:38:55;26.33;;;5.27;;
8993;SDS011;4532;50.886;4.700;2023-01-10T10:44:05;19.43;;;4.00;;
8993;SDS011;4532;50.886;4.700;2023-01-10T10:46:42;18.53;;;4.60;;
8993;SDS011;4532;50.886;4.700;2023-01-10T10:49:15;19.87;;;4.60;;
8993;SDS011;4532;50.886;4.700;2023-01-10T10:52:01;19.73;;;4.13;;
8993;SDS011;4532;50.886;4.700;2023-01-10T10:54:34;19.20;;;3.87;;
8993;SDS011;4532;50.886;4.700;2023-01-10T10:57:02;20.57;;;4.07;;
8993;SDS011;4532;50.886;4.700;2023-01-10T10:59:32;23.13;;;4.40;;
8993;SDS011;4532;50.886;4.700;2023-01-10T11:02:01;17.40;;;4.30;;
8993;SDS011;4532;50.886;4.700;2023-01-10T11:04:29;17.70;;;3.80;;
8993;SDS011;4532;50.886;4.700;2023-01-10T11:06:57;18.93;;;4.37;;
8993;SDS011;4532;50.886;4.700;2023-01-10T11:09:25;18.43;;;4.50;;
8993;SDS011;4532;50.886;4.700;2023-01-10T11:11:56;21.77;;;4.20;;
8993;SDS011;4532;50.886;4.700;2023-01-10T11:17:30;23.73;;;5.13;;
8993;SDS011;4532;50.886;4.700;2023-01-10T11:20:12;23.53;;;4.30;;
8993;SDS011;4532;50.886;4.700;2023-01-10T11:22:46;18.77;;;4.30;;
8993;SDS011;4532;50.886;4.700;2023-01-10T11:25:22;17.40;;;3.90;;
8993;SDS011;4532;50.886;4.700;2023-01-10T11:27:52;19.80;;;4.10;;
8993;SDS011;4532;50.886;4.700;2023-01-10T11:30:21;18.97;;;4.73;;
8993;SDS011;4532;50.886;4.700;2023-01-10T11:32:57;22.27;;;5.83;;
8993;SDS011;4532;50.886;4.700;2023-01-10T11:35:36;19.47;;;4.87;;
8993;SDS011;4532;50.886;4.700;2023-01-10T11:40:53;18.57;;;4.80;;
8993;SDS011;4532;50.886;4.700;2023-01-10T11:43:25;28.43;;;5.00;;
8993;SDS011;4532;50.886;4.700;2023-01-10T11:49:02;15.73;;;3.80;;
8993;SDS011;4532;50.886;4.700;2023-01-10T11:51:38;17.30;;;3.47;;
8993;SDS011;4532;50.886;4.700;2023-01-10T11:54:12;22.00;;;4.60;;
8993;SDS011;4532;50.886;4.700;2023-01-10T11:59:49;18.57;;;4.20;;
8993;SDS011;4532;50.886;4.700;2023-01-10T12:04:51;18.30;;;3.83;;
8993;SDS011;4532;50.886;4.700;2023-01-10T12:07:19;21.03;;;4.30;;
8993;SDS011;4532;50.886;4.700;2023-01-10T12:09:58;18.57;;;4.10;;
8993;SDS011;4532;50.886;4.700;2023-01-10T12:12:31;26.80;;;4.70;;
8993;SDS011;4532;50.886;4.700;2023-01-10T12:18:02;27.73;;;4.93;;
8993;SDS011;4532;50.886;4.700;2023-01-10T12:20:33;20.43;;;4.10;;
8993;SDS011;4532;50.886;4.700;2023-01-10T12:23:15;21.17;;;4.20;;
8993;SDS011;4532;50.886;4.700;2023-01-10T12:25:46;21.93;;;4.60;;
8993;SDS011;4532;50.886;4.700;2023-01-10T12:28:23;23.30;;;4.30;;
8993;SDS011;4532;50.886;4.700;2023-01-10T12:30:57;29.33;;;4.70;;
8993;SDS011;4532;50.886;4.700;2023-01-10T12:33:32;16.63;;;4.13;;
8993;SDS011;4532;50.886;4.700;2023-01-10T12:36:25;20.20;;;4.90;;
8993;SDS011;4532;50.886;4.700;2023-01-10T12:39:14;23.20;;;4.57;;
8993;SDS011;4532;50.886;4.700;2023-01-10T12:41:58;20.63;;;4.00;;
8993;SDS011;4532;50.886;4.700;2023-01-10T12:44:59;19.73;;;4.27;;
8993;SDS011;4532;50.886;4.700;2023-01-10T12:50:34;24.73;;;4.53;;
8993;SDS011;4532;50.886;4.700;2023-01-10T12:53:11;18.77;;;4.03;;
8993;SDS011;4532;50.886;4.700;2023-01-10T12:55:52;17.87;;;3.73;;
8993;SDS011;4532;50.886;4.700;2023-01-10T12:58:26;20.57;;;4.93;;
8993;SDS011;4532;50.886;4.700;2023-01-10T13:01:06;22.20;;;4.67;;
8993;SDS011;4532;50.886;4.700;2023-01-10T13:03:48;19.70;;;4.33;;
8993;SDS011;4532;50.886;4.700;2023-01-10T13:06:20;20.10;;;4.40;;
8993;SDS011;4532;50.886;4.700;2023-01-10T13:09:18;17.30;;;4.30;;
8993;SDS011;4532;50.886;4.700;2023-01-10T13:14:35;21.50;;;4.00;;
8993;SDS011;4532;50.886;4.700;2023-01-10T13:17:18;22.53;;;4.13;;
8993;SDS011;4532;50.886;4.700;2023-01-10T13:22:56;19.43;;;4.60;;
8993;SDS011;4532;50.886;4.700;2023-01-10T13:25:32;19.50;;;4.23;;
8993;SDS011;4532;50.886;4.700;2023-01-10T13:30:40;17.17;;;3.77;;
8993;SDS011;4532;50.886;4.700;2023-01-10T13:33:29;17.17;;;3.97;;
8993;SDS011;4532;50.886;4.700;2023-01-10T13:36:18;14.50;;;3.30;;
8993;SDS011;4532;50.886;4.700;2023-01-10T13:38:55;14.40;;;3.10;;
8993;SDS011;4532;50.886;4.700;2023-01-10T14:08:52;13.27;;;3.50;;
8993;SDS011;4532;50.886;4.700;2023-01-10T14:11:50;15.87;;;3.60;;
8993;SDS011;4532;50.886;4.700;2023-01-10T14:16:55;15.63;;;3.53;;
8993;SDS011;4532;50.886;4.700;2023-01-10T14:19:36;15.20;;;3.13;;
8993;SDS011;4532;50.886;4.700;2023-01-10T14:22:04;18.63;;;3.53;;
8993;SDS011;4532;50.886;4.700;2023-01-10T14:24:40;9.10;;;2.57;;
8993;SDS011;4532;50.886;4.700;2023-01-10T14:27:13;11.50;;;2.97;;
8993;SDS011;4532;50.886;4.700;2023-01-10T14:29:49;12.43;;;3.00;;
8993;SDS011;4532;50.886;4.700;2023-01-10T14:35:06;9.00;;;2.30;;
8993;SDS011;4532;50.886;4.700;2023-01-10T14:37:40;11.30;;;2.13;;
8993;SDS011;4532;50.886;4.700;2023-01-10T14:42:52;11.73;;;2.30;;
8993;SDS011;4532;50.886;4.700;2023-01-10T14:48:24;8.00;;;2.17;;
8993;SDS011;4532;50.886;4.700;2023-01-10T14:53:47;6.67;;;2.43;;
8993;SDS011;4532;50.886;4.700;2023-01-10T14:59:24;5.03;;;1.50;;
8993;SDS011;4532;50.886;4.700;2023-01-10T15:01:56;7.00;;;1.50;;
8993;SDS011;4532;50.886;4.700;2023-01-10T15:04:29;6.37;;;1.90;;
8993;SDS011;4532;50.886;4.700;2023-01-10T15:07:02;6.03;;;1.30;;
8993;SDS011;4532;50.886;4.700;2023-01-10T15:09:38;4.90;;;1.40;;
8993;SDS011;4532;50.886;4.700;2023-01-10T15:12:13;4.17;;;1.17;;
8993;SDS011;4532;50.886;4.700;2023-01-10T15:14:42;5.10;;;1.13;;
8993;SDS011;4532;50.886;4.700;2023-01-10T15:17:14;5.20;;;1.20;;
8993;SDS011;4532;50.886;4.700;2023-01-10T15:19:47;5.40;;;1.50;;
8993;SDS011;4532;50.886;4.700;2023-01-10T15:22:25;4.50;;;1.17;;
8993;SDS011;4532;50.886;4.700;2023-01-10T15:27:46;4.07;;;1.20;;
8993;SDS011;4532;50.886;4.700;2023-01-10T15:30:20;3.73;;;1.10;;
8993;SDS011;4532;50.886;4.700;2023-01-10T15:32:59;4.77;;;1.50;;
8993;SDS011;4532;50.886;4.700;2023-01-10T15:35:33;2.60;;;0.90;;
8993;SDS011;4532;50.886;4.700;2023-01-10T15:38:04;2.43;;;0.90;;
8993;SDS011;4532;50.886;4.700;2023-01-10T15:40:34;2.27;;;0.73;;
8993;SDS011;4532;50.886;4.700;2023-01-10T15:45:48;2.03;;;0.80;;
8993;SDS011;4532;50.886;4.700;2023-01-10T15:51:10;1.83;;;0.70;;
8993;SDS011;4532;50.886;4.700;2023-01-10T15:56:45;1.67;;;0.80;;
8993;SDS011;4532;50.886;4.700;2023-01-10T16:01:59;2.27;;;0.70;;
8993;SDS011;4532;50.886;4.700;2023-01-10T16:04:33;2.23;;;0.60;;
8993;SDS011;4532;50.886;4.700;2023-01-10T16:07:05;1.67;;;0.70;;
8993;SDS011;4532;50.886;4.700;2023-01-10T16:09:38;1.00;;;0.50;;
8993;SDS011;4532;50.886;4.700;2023-01-10T16:12:55;1.60;;;0.50;;
8993;SDS011;4532;50.886;4.700;2023-01-10T16:15:24;1.33;;;0.70;;
8993;SDS011;4532;50.886;4.700;2023-01-10T16:17:58;1.07;;;0.50;;
8993;SDS011;4532;50.886;4.700;2023-01-10T16:20:40;1.70;;;0.53;;
8993;SDS011;4532;50.886;4.700;2023-01-10T16:23:21;2.17;;;0.50;;
8993;SDS011;4532;50.886;4.700;2023-01-10T16:25:52;1.00;;;0.50;;
8993;SDS011;4532;50.886;4.700;2023-01-10T16:28:21;0.53;;;0.50;;
8993;SDS011;4532;50.886;4.700;2023-01-10T16:30:49;1.17;;;0.60;;
8993;SDS011;4532;50.886;4.700;2023-01-10T16:33:23;1.10;;;0.50;;
8993;SDS011;4532;50.886;4.700;2023-01-10T16:35:55;0.90;;;0.40;;
8993;SDS011;4532;50.886;4.700;2023-01-10T16:38:25;1.80;;;0.70;;
8993;SDS011;4532;50.886;4.700;2023-01-10T16:41:00;0.30;;;0.20;;
8993;SDS011;4532;50.886;4.700;2023-01-10T16:43:50;0.50;;;0.30;;
8993;SDS011;4532;50.886;4.700;2023-01-10T16:46:20;2.13;;;0.40;;
8993;SDS011;4532;50.886;4.700;2023-01-10T16:48:50;1.63;;;0.53;;
8993;SDS011;4532;50.886;4.700;2023-01-10T16:51:20;0.67;;;0.60;;
8993;SDS011;4532;50.886;4.700;2023-01-10T16:53:51;0.90;;;0.50;;
8993;SDS011;4532;50.886;4.700;2023-01-10T16:56:19;1.33;;;0.57;;
8993;SDS011;4532;50.886;4.700;2023-01-10T16:58:48;0.97;;;0.40;;
8993;SDS011;4532;50.886;4.700;2023-01-10T17:01:20;1.80;;;0.60;;
8993;SDS011;4532;50.886;4.700;2023-01-10T17:03:56;2.10;;;0.50;;
8993;SDS011;4532;50.886;4.700;2023-01-10T17:06:27;0.97;;;0.70;;
8993;SDS011;4532;50.886;4.700;2023-01-10T17:08:54;0.60;;;0.30;;
8993;SDS011;4532;50.886;4.700;2023-01-10T17:11:25;0.53;;;0.50;;
8993;SDS011;4532;50.886;4.700;2023-01-10T17:13:57;2.77;;;0.40;;
8993;SDS011;4532;50.886;4.700;2023-01-10T17:16:25;0.73;;;0.40;;
8993;SDS011;4532;50.886;4.700;2023-01-10T17:18:52;0.67;;;0.50;;
8993;SDS011;4532;50.886;4.700;2023-01-10T17:21:24;0.60;;;0.40;;
8993;SDS011;4532;50.886;4.700;2023-01-10T17:23:55;0.67;;;0.40;;
8993;SDS011;4532;50.886;4.700;2023-01-10T17:26:22;0.83;;;0.40;;
8993;SDS011;4532;50.886;4.700;2023-01-10T17:28:50;2.13;;;0.50;;
8993;SDS011;4532;50.886;4.700;2023-01-10T17:31:22;1.40;;;0.60;;
8993;SDS011;4532;50.886;4.700;2023-01-10T17:33:51;1.27;;;0.50;;
8993;SDS011;4532;50.886;4.700;2023-01-10T17:36:21;0.60;;;0.40;;
8993;SDS011;4532;50.886;4.700;2023-01-10T17:38:57;0.77;;;0.53;;
8993;SDS011;4532;50.886;4.700;2023-01-10T17:41:27;0.60;;;0.60;;
8993;SDS011;4532;50.886;4.700;2023-01-10T17:43:54;1.47;;;0.70;;
8993;SDS011;4532;50.886;4.700;2023-01-10T17:46:23;1.30;;;0.40;;
8993;SDS011;4532;50.886;4.700;2023-01-10T17:48:53;0.70;;;0.70;;
8993;SDS011;4532;50.886;4.700;2023-01-10T17:51:22;1.00;;;0.60;;
8993;SDS011;4532;50.886;4.700;2023-01-10T17:53:50;1.63;;;0.70;;
8993;SDS011;4532;50.886;4.700;2023-01-10T17:56:20;1.47;;;0.87;;
8993;SDS011;4532;50.886;4.700;2023-01-10T17:58:53;0.70;;;0.67;;